19:04
Airports
History
Links
Donate
Help keep this website running!
PayPal
Bitcoin
This page is community maintained. The information is intended for PC simulator navigation or reference.
Always use approved charts for navigation.
SITR
Fazenda Corrego Limpo
Fazenda Corrego Limpo (SITR)
Terenos, Mato Grosso do Sul, Brazil (79190)
4
Lat/Lng:20° 10' 24" S / 55° 4' 10" W
-20.173333 / -55.069444
Elevation:1509'ft / 460mMSL
ID / ICAO:SITR
Runways:1
Longest:03-21
Grass 1,110m / 3,643ft
Nearby Weather19:00 GMT 2018-02-21
Nearby weather at SBCG, Campo Grande located 32.8 nautical miles from SITR
Altimeter: 29.83
Visibility: 6.2 statute miles
Wind: 7 knots (from 230°)
Temp: 30°c / 86°f
Humidity: 55.1%

METAR: SBCG 211900Z 23007KT 9999 VCSH SCT035 FEW040TCU 30/20 Q1010

(Powered by phpweather)
Runway 03 / 21
Dimensions:1110.4 x 18m 3643' x 59'ft
Surface:Grass
Runway 03 [A]Runway 21 [B]
Heading:013°TH 193°TH
Lat:
Lng:
20° 10' 41.57"S
55° 4' 14.33"W
20° 10' 6.43"S
55° 4' 5.67"W
User Notes and Comments
20° 10' 24" S / 55° 4' 10" W
Distance To
Airport ID:
Nearby Airports
4 Fazenda Sao Joao 10.7 NM
SDTW S 190°
4 Fazenda Lageado 24.6 NM
SSBM WSW 249°
4 Fazenda ANB 28.3 NM
SJHT NNE 33°
4 Fazenda Paraiso 29.9 NM
SSHQ SSE 153°
(C) Campo Grande 32.8 NM
SBCG ( WX ) SE 128°
4 Fazenda Sao Jose 35.8 NM
SIEF SE 140°
4 Fazenda Estancia Regina 37.0 NM
SIQD SSE 150°
VFR Chart
Flight Planning at SkyVector.com